Time;durP1;ratioP1;P1;durP2;ratioP2;P2;SDS_P1;SDS_P2;PMS_P1;PMS_P2;Temp;Humidity;BMP_temperature;BMP_pressure;BME280_temperature;BME280_humidity;BME280_pressure;Samples;Min_cycle;Max_cycle;Signal;HPM_P1;HPM_P2
2022/04/16 00:00:30;;;;;;;4.10;3.17;;;7.60;99.60;;;;;;5079147;28;20236;-65
2022/04/16 00:02:57;;;;;;;3.63;2.88;;;7.70;99.70;;;;;;5090428;28;20580;-65
2022/04/16 00:05:24;;;;;;;4.00;3.25;;;7.60;99.90;;;;;;5089463;28;20219;-65
2022/04/16 00:10:32;;;;;;;4.85;2.50;;;7.50;99.90;;;;;;5090066;28;20219;-66
2022/04/16 00:12:59;;;;;;;2.92;2.65;;;7.50;99.90;;;;;;5091459;28;20219;-66
2022/04/16 00:15:27;;;;;;;3.00;2.47;;;7.50;99.90;;;;;;5091305;28;20711;-66
2022/04/16 00:17:54;;;;;;;6.10;3.08;;;7.50;99.90;;;;;;5090595;28;20559;-65
2022/04/16 00:20:26;;;;;;;4.90;3.50;;;7.50;99.90;;;;;;5091342;28;20216;-65
2022/04/16 00:22:53;;;;;;;3.33;2.15;;;7.50;99.90;;;;;;5089892;28;20222;-65
2022/04/16 00:25:20;;;;;;;4.72;2.88;;;7.50;99.90;;;;;;5092264;28;20236;-65
2022/04/16 00:27:47;;;;;;;4.70;2.40;;;7.50;99.90;;;;;;5091546;28;20232;-65
2022/04/16 00:30:15;;;;;;;5.90;2.90;;;7.40;99.90;;;;;;5091065;28;20223;-65
2022/04/16 00:32:43;;;;;;;5.40;2.35;;;7.40;99.90;;;;;;5091163;28;20232;-66
2022/04/16 00:35:10;;;;;;;4.70;2.28;;;7.40;99.90;;;;;;5091257;28;20219;-65
2022/04/16 00:37:37;;;;;;;3.17;2.40;;;7.30;99.90;;;;;;5089755;28;20223;-65
2022/04/16 00:40:06;;;;;;;3.95;2.50;;;7.30;99.90;;;;;;5081583;28;20219;-66
2022/04/16 00:42:33;;;;;;;3.38;2.30;;;7.30;99.90;;;;;;5091973;27;20223;-66
2022/04/16 00:45:00;;;;;;;5.72;2.63;;;7.20;99.90;;;;;;5095391;28;20281;-66
2022/04/16 00:47:27;;;;;;;2.78;1.55;;;7.20;99.90;;;;;;5095357;28;20238;-66
2022/04/16 00:49:55;;;;;;;3.45;2.75;;;7.20;99.90;;;;;;5094410;28;20230;-66
2022/04/16 00:52:22;;;;;;;1.92;1.73;;;7.20;99.90;;;;;;5093179;28;20761;-66
2022/04/16 00:54:51;;;;;;;3.45;2.15;;;7.20;99.90;;;;;;5092393;28;20216;-66
2022/04/16 00:57:19;;;;;;;2.10;1.80;;;7.10;99.90;;;;;;5094994;28;20223;-66
2022/04/16 00:59:46;;;;;;;4.03;2.78;;;7.20;99.90;;;;;;5094638;28;20223;-66
2022/04/16 01:02:13;;;;;;;3.40;3.08;;;7.10;99.90;;;;;;5097116;28;20681;-66
2022/04/16 01:04:40;;;;;;;2.78;1.95;;;7.20;99.90;;;;;;5098534;28;20247;-66
2022/04/16 01:07:08;;;;;;;4.30;2.15;;;7.10;99.90;;;;;;5096591;28;20226;-66
2022/04/16 01:09:35;;;;;;;3.75;2.55;;;7.10;99.90;;;;;;5093840;28;20212;-66
2022/04/16 01:12:02;;;;;;;3.70;2.63;;;7.10;99.90;;;;;;5095261;28;20227;-66
2022/04/16 01:14:29;;;;;;;2.45;1.90;;;7.00;99.90;;;;;;5095102;28;20692;-65
2022/04/16 01:16:57;;;;;;;4.05;1.90;;;7.00;99.90;;;;;;5091280;28;20221;-66
2022/04/16 01:19:25;;;;;;;4.38;2.10;;;7.00;99.90;;;;;;5092435;28;20223;-66
2022/04/16 01:21:52;;;;;;;2.40;1.75;;;7.00;99.90;;;;;;5094624;28;20224;-66
2022/04/16 01:24:20;;;;;;;5.20;1.83;;;7.00;99.90;;;;;;5092744;28;20699;-66
2022/04/16 01:26:51;;;;;;;2.78;1.98;;;7.00;99.90;;;;;;5094409;28;20239;-66
2022/04/16 01:29:18;;;;;;;2.67;1.42;;;6.90;99.90;;;;;;5092301;28;20235;-66
2022/04/16 01:31:45;;;;;;;4.25;2.30;;;6.80;99.90;;;;;;5086639;28;20247;-66
2022/04/16 01:34:14;;;;;;;3.63;1.80;;;6.80;99.90;;;;;;5094731;28;20234;-66
2022/04/16 01:36:41;;;;;;;4.40;2.35;;;6.80;99.90;;;;;;5086008;28;20212;-66
2022/04/16 01:39:08;;;;;;;2.90;2.20;;;6.80;99.90;;;;;;5094787;28;20223;-66
2022/04/16 01:41:36;;;;;;;6.15;2.22;;;6.80;99.90;;;;;;5094315;28;20232;-66
2022/04/16 01:44:03;;;;;;;4.65;2.50;;;6.70;99.90;;;;;;5093616;28;20224;-66
2022/04/16 01:46:30;;;;;;;3.33;2.00;;;6.70;99.90;;;;;;5094339;28;20222;-66
2022/04/16 01:48:57;;;;;;;4.80;1.75;;;6.70;99.90;;;;;;5094267;28;20219;-66
2022/04/16 01:51:24;;;;;;;4.60;2.13;;;6.60;99.90;;;;;;5094108;28;20647;-66
2022/04/16 01:53:52;;;;;;;5.85;2.35;;;6.60;99.90;;;;;;5089313;28;20216;-66
2022/04/16 01:56:19;;;;;;;3.88;2.30;;;6.60;99.90;;;;;;5094195;28;20220;-66
2022/04/16 01:58:49;;;;;;;4.82;2.00;;;6.50;99.90;;;;;;5093735;28;20289;-66
2022/04/16 02:01:18;;;;;;;2.03;1.80;;;6.50;99.90;;;;;;5094182;28;20227;-66
2022/04/16 02:03:44;;;;;;;3.65;2.15;;;6.50;99.90;;;;;;5093641;28;20243;-66
2022/04/16 02:06:11;;;;;;;3.97;2.08;;;6.50;99.90;;;;;;5094256;28;20230;-66
2022/04/16 02:08:38;;;;;;;4.03;2.47;;;6.50;99.90;;;;;;5093668;28;20224;-66
2022/04/16 02:11:05;;;;;;;2.72;2.33;;;6.50;99.90;;;;;;5093882;28;20235;-66
2022/04/16 02:13:32;;;;;;;1.92;1.73;;;6.50;99.90;;;;;;5093988;28;20220;-66
2022/04/16 02:16:00;;;;;;;3.80;2.47;;;6.40;99.90;;;;;;5093628;28;20223;-66
2022/04/16 02:18:27;;;;;;;2.70;1.80;;;6.40;99.90;;;;;;5083161;28;20227;-66
2022/04/16 02:20:54;;;;;;;1.73;1.63;;;6.40;99.90;;;;;;5093409;28;20223;-66
2022/04/16 02:23:21;;;;;;;1.80;1.70;;;6.40;99.90;;;;;;5093796;28;20219;-66
2022/04/16 02:25:48;;;;;;;4.35;2.25;;;6.40;99.90;;;;;;5093328;28;20230;-66
2022/04/16 02:28:15;;;;;;;2.40;2.20;;;6.30;99.90;;;;;;5093060;28;20231;-66
2022/04/16 02:30:41;;;;;;;5.75;3.10;;;6.40;99.90;;;;;;5092638;28;20227;-66
2022/04/16 02:33:10;;;;;;;3.67;3.22;;;6.30;99.90;;;;;;5093788;28;20572;-66
2022/04/16 02:35:38;;;;;;;3.88;2.75;;;6.30;99.90;;;;;;5093617;28;20681;-66
2022/04/16 02:38:05;;;;;;;9.13;2.35;;;6.30;99.90;;;;;;5088794;28;20312;-66
2022/04/16 02:40:33;;;;;;;3.25;2.20;;;6.20;99.90;;;;;;5093623;28;20231;-66
2022/04/16 02:42:59;;;;;;;4.25;2.50;;;6.20;99.90;;;;;;5092861;28;20254;-66
2022/04/16 02:48:12;;;;;;;2.40;1.95;;;6.20;99.90;;;;;;5092392;28;20367;-66
2022/04/16 02:50:39;;;;;;;5.20;2.70;;;6.10;99.90;;;;;;5093380;28;20220;-66
2022/04/16 02:53:06;;;;;;;3.20;2.30;;;6.20;99.90;;;;;;5092565;28;20245;-66
2022/04/16 02:55:33;;;;;;;2.80;2.25;;;6.20;99.90;;;;;;5092913;28;20219;-66
2022/04/16 02:58:00;;;;;;;2.90;2.30;;;6.10;99.90;;;;;;5092653;28;20228;-66
2022/04/16 03:00:27;;;;;;;4.25;2.75;;;6.20;99.90;;;;;;5092185;28;20685;-66
2022/04/16 03:02:54;;;;;;;5.43;2.42;;;6.10;99.90;;;;;;5092093;28;20669;-66
2022/04/16 03:05:22;;;;;;;3.08;2.15;;;6.10;99.90;;;;;;5093032;28;20219;-66
2022/04/16 03:07:50;;;;;;;3.20;2.45;;;6.20;99.90;;;;;;5092725;28;20215;-66
2022/04/16 03:10:17;;;;;;;4.68;2.15;;;6.20;99.90;;;;;;5092282;28;20243;-66
2022/04/16 03:12:46;;;;;;;3.05;2.10;;;6.20;99.90;;;;;;5093035;28;20231;-66
2022/04/16 03:17:58;;;;;;;4.65;2.58;;;6.10;99.90;;;;;;5092332;28;20250;-66
2022/04/16 03:20:29;;;;;;;5.10;2.10;;;6.10;99.90;;;;;;5092965;28;20218;-66
2022/04/16 03:22:56;;;;;;;2.45;1.83;;;6.10;99.90;;;;;;5092514;28;20215;-66
2022/04/16 03:25:23;;;;;;;5.93;2.65;;;6.10;99.90;;;;;;5092944;28;20565;-66
2022/04/16 03:27:50;;;;;;;3.10;1.85;;;6.10;99.90;;;;;;5092372;28;20572;-66
2022/04/16 03:30:18;;;;;;;2.17;1.92;;;6.10;99.90;;;;;;5092701;28;20216;-66
2022/04/16 03:32:47;;;;;;;4.32;2.30;;;6.10;99.90;;;;;;5092638;28;20234;-66
2022/04/16 03:35:14;;;;;;;2.58;1.80;;;6.20;99.90;;;;;;5092427;28;20284;-66
2022/04/16 03:37:43;;;;;;;3.80;2.33;;;6.20;99.90;;;;;;5090429;28;20220;-66
2022/04/16 03:40:10;;;;;;;3.40;2.00;;;6.20;99.90;;;;;;5092353;28;20569;-66
2022/04/16 03:42:45;;;;;;;4.55;2.60;;;6.30;99.90;;;;;;5092556;28;20231;-66
2022/04/16 03:45:18;;;;;;;6.65;2.55;;;6.30;99.90;;;;;;5092593;28;20656;-66
2022/04/16 03:47:45;;;;;;;4.15;2.15;;;6.30;99.90;;;;;;5084632;28;20557;-66
2022/04/16 03:50:13;;;;;;;2.25;2.00;;;6.40;99.90;;;;;;5091760;28;20241;-66
2022/04/16 03:52:40;;;;;;;6.63;3.20;;;6.40;99.90;;;;;;5088054;28;20245;-66
2022/04/16 04:00:43;;;;;;;1.70;1.60;;;6.40;99.90;;;;;;5090452;28;20716;-66
2022/04/16 04:03:10;;;;;;;4.10;2.00;;;6.40;99.90;;;;;;5091313;28;20246;-66
2022/04/16 04:05:37;;;;;;;4.43;2.25;;;6.20;99.90;;;;;;5091718;28;20223;-66
2022/04/16 04:08:05;;;;;;;3.40;2.05;;;6.30;99.90;;;;;;5091283;28;20246;-66
2022/04/16 04:10:33;;;;;;;3.42;2.47;;;6.20;99.90;;;;;;5077995;28;20220;-66
2022/04/16 04:13:00;;;;;;;5.80;3.20;;;6.30;99.90;;;;;;5090982;27;20219;-66
2022/04/16 04:15:27;;;;;;;3.45;2.00;;;6.30;99.90;;;;;;5086276;28;20243;-66
2022/04/16 04:17:54;;;;;;;2.40;1.88;;;6.30;99.90;;;;;;5087348;28;20219;-65
2022/04/16 04:20:21;;;;;;;4.75;2.60;;;6.40;99.90;;;;;;5096330;28;20223;-66
2022/04/16 04:22:48;;;;;;;4.65;2.67;;;6.40;99.90;;;;;;5095905;28;20215;-65
2022/04/16 04:25:14;;;;;;;2.95;2.58;;;6.40;99.90;;;;;;5095849;28;20219;-66
2022/04/16 04:27:43;;;;;;;3.45;2.30;;;6.40;99.90;;;;;;5096206;28;20219;-66
2022/04/16 04:30:11;;;;;;;2.50;2.13;;;6.40;99.90;;;;;;5095784;28;20249;-66
2022/04/16 04:32:38;;;;;;;4.75;3.03;;;6.40;99.90;;;;;;5095521;28;20227;-66
2022/04/16 04:35:06;;;;;;;3.75;2.97;;;6.40;99.90;;;;;;5095761;28;20235;-66
2022/04/16 04:37:33;;;;;;;3.22;2.50;;;6.40;99.90;;;;;;5095733;28;20223;-66
2022/04/16 04:39:59;;;;;;;2.47;2.28;;;6.40;99.90;;;;;;5095652;28;20903;-66
2022/04/16 04:42:28;;;;;;;5.68;2.83;;;6.40;99.90;;;;;;5095326;28;20223;-65
2022/04/16 04:44:57;;;;;;;3.35;2.45;;;6.40;99.90;;;;;;5095541;28;20219;-66
2022/04/16 04:47:24;;;;;;;8.00;2.20;;;6.40;99.90;;;;;;5095704;28;20239;-66
2022/04/16 04:49:51;;;;;;;6.10;3.67;;;6.40;99.90;;;;;;5095664;28;20219;-66
2022/04/16 04:52:21;;;;;;;6.03;2.88;;;6.40;99.90;;;;;;5094973;28;20254;-66
2022/04/16 04:54:48;;;;;;;4.50;2.55;;;6.40;99.90;;;;;;5095435;28;20223;-66
2022/04/16 04:57:15;;;;;;;3.35;2.90;;;6.40;99.90;;;;;;5095145;28;20231;-66
2022/04/16 04:59:43;;;;;;;2.60;2.40;;;6.40;99.90;;;;;;5095638;28;20238;-66
2022/04/16 05:02:11;;;;;;;9.68;3.38;;;6.40;99.90;;;;;;5094647;28;20254;-66
2022/04/16 05:04:38;;;;;;;2.85;2.17;;;6.50;99.90;;;;;;5095546;28;20219;-66
2022/04/16 05:07:07;;;;;;;3.55;2.55;;;6.50;99.90;;;;;;5094723;28;20224;-66
2022/04/16 05:09:34;;;;;;;5.40;1.95;;;6.60;99.90;;;;;;5095283;28;20258;-66
2022/04/16 05:12:01;;;;;;;3.22;2.80;;;6.60;99.90;;;;;;5094884;28;20231;-66
2022/04/16 05:14:27;;;;;;;4.00;2.47;;;6.60;99.90;;;;;;5094874;27;20224;-66
2022/04/16 05:16:54;;;;;;;5.07;2.47;;;6.70;99.90;;;;;;5095212;28;20227;-66
2022/04/16 05:19:23;;;;;;;8.45;2.47;;;6.80;99.90;;;;;;5094803;27;20220;-66
2022/04/16 05:21:49;;;;;;;3.03;2.05;;;6.80;99.90;;;;;;5094999;28;20223;-66
2022/04/16 05:24:16;;;;;;;4.13;2.67;;;6.90;99.90;;;;;;5094694;28;20310;-66
2022/04/16 05:26:43;;;;;;;6.68;2.58;;;6.80;99.90;;;;;;5094980;28;20688;-66
2022/04/16 05:29:10;;;;;;;4.97;2.78;;;6.90;99.90;;;;;;5094530;28;20238;-66
2022/04/16 05:31:37;;;;;;;2.53;2.00;;;7.00;99.90;;;;;;5094943;28;20692;-66
2022/04/16 05:34:22;;;;;;;4.38;2.25;;;7.00;99.90;;;;;;5094612;28;20239;-66
2022/04/16 05:36:51;;;;;;;4.00;3.50;;;7.00;99.90;;;;;;5087608;28;20234;-66
2022/04/16 05:39:19;;;;;;;3.42;2.72;;;7.10;99.90;;;;;;5094437;28;20227;-66
2022/04/16 05:41:46;;;;;;;5.13;2.95;;;7.10;99.90;;;;;;5094264;28;20563;-66
2022/04/16 05:44:13;;;;;;;3.05;2.40;;;7.20;99.90;;;;;;5090178;28;20231;-66
2022/04/16 05:46:40;;;;;;;3.38;2.60;;;7.20;99.90;;;;;;5094594;28;20219;-66
2022/04/16 05:49:07;;;;;;;4.80;2.67;;;7.20;99.90;;;;;;5093494;28;20227;-66
2022/04/16 05:51:34;;;;;;;2.95;2.67;;;7.20;99.90;;;;;;5092791;28;20231;-66
2022/04/16 05:54:03;;;;;;;3.97;2.53;;;7.20;99.90;;;;;;5091794;28;20227;-66
2022/04/16 05:56:31;;;;;;;3.38;2.08;;;7.30;99.90;;;;;;5093103;28;20577;-65
2022/04/16 05:59:00;;;;;;;2.30;2.00;;;7.30;99.90;;;;;;5092026;28;20281;-65
2022/04/16 06:01:27;;;;;;;5.38;3.20;;;7.40;99.90;;;;;;5082118;28;20258;-65
2022/04/16 06:03:54;;;;;;;4.13;2.30;;;7.30;99.90;;;;;;5093043;28;20216;-66
2022/04/16 06:06:21;;;;;;;2.30;2.10;;;7.30;99.90;;;;;;5092530;28;20313;-66
2022/04/16 06:08:48;;;;;;;5.70;2.33;;;7.30;99.90;;;;;;5093122;28;20223;-66
2022/04/16 06:11:18;;;;;;;2.85;2.35;;;7.40;99.90;;;;;;5093662;28;20224;-65
2022/04/16 06:13:45;;;;;;;3.17;2.88;;;7.50;99.90;;;;;;5094226;28;20318;-65
2022/04/16 06:16:12;;;;;;;7.72;3.40;;;7.50;99.90;;;;;;5093774;28;20215;-65
2022/04/16 06:18:39;;;;;;;3.58;3.28;;;7.60;99.90;;;;;;5094027;28;20260;-64
2022/04/16 06:21:06;;;;;;;2.83;2.45;;;7.70;99.90;;;;;;5093742;28;20224;-65
2022/04/16 06:23:32;;;;;;;8.25;3.20;;;7.80;99.90;;;;;;5094064;28;20216;-65
2022/04/16 06:26:03;;;;;;;2.70;2.50;;;7.80;99.90;;;;;;5093991;28;20219;-65
2022/04/16 06:28:31;;;;;;;2.75;2.50;;;7.90;99.90;;;;;;5093604;28;20215;-65
2022/04/16 06:30:58;;;;;;;3.67;3.00;;;7.90;99.90;;;;;;5094098;28;20227;-65
2022/04/16 06:33:25;;;;;;;3.75;2.55;;;8.00;99.90;;;;;;5093250;28;20238;-65
2022/04/16 06:35:55;;;;;;;3.17;2.97;;;8.10;99.90;;;;;;5093815;28;20219;-65
2022/04/16 06:38:22;;;;;;;4.60;3.67;;;8.10;99.90;;;;;;5093427;28;20234;-65
2022/04/16 06:40:51;;;;;;;5.90;3.03;;;8.20;99.90;;;;;;5093396;28;20215;-65
2022/04/16 06:43:18;;;;;;;7.47;2.88;;;8.20;99.90;;;;;;5093231;28;20274;-65
2022/04/16 06:45:47;;;;;;;4.25;2.17;;;8.20;99.90;;;;;;5093935;28;20566;-65
2022/04/16 06:48:14;;;;;;;2.50;2.30;;;8.30;99.90;;;;;;5093132;28;20245;-65
2022/04/16 06:50:48;;;;;;;5.18;3.38;;;8.40;99.90;;;;;;5093625;28;20222;-65
2022/04/16 06:53:18;;;;;;;2.97;2.40;;;8.40;99.90;;;;;;5093252;28;20312;-65
2022/04/16 06:55:44;;;;;;;4.45;2.60;;;8.40;99.90;;;;;;5093796;28;20227;-64
2022/04/16 06:58:20;;;;;;;5.30;2.92;;;8.50;99.90;;;;;;5093031;28;20227;-64
2022/04/16 07:00:49;;;;;;;3.78;2.10;;;8.50;99.90;;;;;;5093536;28;20552;-64
2022/04/16 07:03:20;;;;;;;6.38;3.00;;;8.50;99.90;;;;;;5092860;28;20223;-65
2022/04/16 07:05:47;;;;;;;5.00;2.70;;;8.60;99.90;;;;;;5093348;28;20223;-66
2022/04/16 07:08:14;;;;;;;3.53;2.80;;;8.70;99.90;;;;;;5092827;28;20235;-65
2022/04/16 07:10:41;;;;;;;3.40;2.50;;;8.70;99.90;;;;;;5093246;28;20238;-65
2022/04/16 07:13:08;;;;;;;3.65;2.88;;;8.70;99.90;;;;;;5092665;28;20554;-64
2022/04/16 07:15:35;;;;;;;3.50;2.60;;;8.70;99.90;;;;;;5093236;28;20226;-64
2022/04/16 07:18:04;;;;;;;3.95;2.60;;;8.80;99.90;;;;;;5093268;28;20238;-64
2022/04/16 07:20:31;;;;;;;4.00;2.05;;;8.70;99.90;;;;;;5092629;28;20303;-65
2022/04/16 07:22:58;;;;;;;5.05;2.50;;;8.80;99.90;;;;;;5092976;28;20222;-64
2022/04/16 07:25:26;;;;;;;1.85;1.70;;;8.90;99.60;;;;;;5092824;28;20555;-64
2022/04/16 07:27:52;;;;;;;2.33;2.13;;;8.90;99.00;;;;;;5092998;28;20541;-64
2022/04/16 07:30:19;;;;;;;2.90;2.00;;;8.90;98.80;;;;;;5092623;28;20690;-65
2022/04/16 07:32:47;;;;;;;3.88;2.50;;;8.90;98.40;;;;;;5092807;28;20215;-65
2022/04/16 07:35:18;;;;;;;2.85;1.95;;;8.90;98.50;;;;;;5092441;28;20549;-65
2022/04/16 07:37:46;;;;;;;4.68;1.85;;;8.80;98.40;;;;;;5092993;28;20216;-65
2022/04/16 07:40:13;;;;;;;2.55;1.42;;;8.80;98.30;;;;;;5092661;28;20219;-65
2022/04/16 07:42:40;;;;;;;5.70;2.00;;;8.70;98.40;;;;;;5092810;28;20231;-65
2022/04/16 07:45:10;;;;;;;3.08;2.10;;;8.70;98.70;;;;;;5092896;28;20223;-65
2022/04/16 07:47:38;;;;;;;2.97;1.70;;;8.80;98.80;;;;;;5092740;28;20232;-65
2022/04/16 07:50:06;;;;;;;4.43;2.70;;;8.80;98.80;;;;;;5092756;28;20215;-65
2022/04/16 07:52:34;;;;;;;2.50;1.95;;;8.80;98.70;;;;;;5093844;28;20227;-64
2022/04/16 07:55:07;;;;;;;4.18;1.80;;;9.00;98.80;;;;;;5096975;28;20812;-65
2022/04/16 07:57:34;;;;;;;6.22;2.72;;;9.00;98.80;;;;;;5096409;28;20688;-65
2022/04/16 08:00:01;;;;;;;3.45;1.70;;;9.10;98.90;;;;;;5096998;28;20215;-65
2022/04/16 08:02:31;;;;;;;3.85;1.88;;;9.10;97.70;;;;;;5096282;28;20587;-66
2022/04/16 08:04:58;;;;;;;4.25;1.67;;;9.20;97.40;;;;;;5096790;28;20302;-66
2022/04/16 08:07:28;;;;;;;4.28;1.75;;;9.20;97.10;;;;;;5096363;28;20307;-65
2022/04/16 08:09:56;;;;;;;1.73;1.58;;;9.30;97.10;;;;;;5096945;28;20219;-65
2022/04/16 08:12:25;;;;;;;2.60;2.17;;;9.40;96.70;;;;;;5096199;28;20227;-66
2022/04/16 08:14:52;;;;;;;3.90;1.65;;;9.50;97.00;;;;;;5096366;28;20341;-66
2022/04/16 08:17:19;;;;;;;2.50;1.88;;;9.60;96.70;;;;;;5096241;28;20227;-66
2022/04/16 08:19:48;;;;;;;3.45;1.75;;;9.60;96.20;;;;;;5096707;28;20542;-65
2022/04/16 08:22:22;;;;;;;3.03;2.30;;;9.70;95.80;;;;;;5095188;28;20227;-65
2022/04/16 08:25:43;;;;;;;1.80;1.30;;;9.70;95.50;;;;;;5096493;28;20304;-65
2022/04/16 08:27:47;;;;;;;3.58;1.50;;;9.80;95.30;;;;;;5096063;28;20650;-66
2022/04/16 08:30:15;;;;;;;2.20;1.70;;;9.90;95.60;;;;;;5096366;28;20231;-65
2022/04/16 08:32:47;;;;;;;2.30;1.98;;;10.00;94.30;;;;;;5095835;28;20219;-65
2022/04/16 08:35:17;;;;;;;2.20;1.55;;;10.00;93.90;;;;;;5096286;28;20231;-65
2022/04/16 08:37:51;;;;;;;3.45;1.45;;;10.10;93.70;;;;;;5095934;28;20211;-66
2022/04/16 08:40:20;;;;;;;1.52;1.42;;;10.10;93.10;;;;;;5096109;28;20444;-66
2022/04/16 08:42:53;;;;;;;1.60;1.45;;;10.10;93.20;;;;;;5095973;28;20215;-65
2022/04/16 08:45:32;;;;;;;2.28;1.38;;;10.20;93.20;;;;;;5095674;28;20276;-66
2022/04/16 08:48:06;;;;;;;3.92;1.45;;;10.40;93.30;;;;;;5095765;28;20223;-66
2022/04/16 08:50:39;;;;;;;2.70;1.70;;;10.40;92.90;;;;;;5095543;28;20227;-65
2022/04/16 08:53:07;;;;;;;3.05;1.50;;;10.50;93.00;;;;;;5095777;28;20255;-65
2022/04/16 08:55:37;;;;;;;3.65;1.55;;;10.70;92.60;;;;;;5095460;28;20689;-65
2022/04/16 08:58:08;;;;;;;2.15;1.45;;;10.80;92.20;;;;;;5095656;28;20245;-65
2022/04/16 09:00:35;;;;;;;1.35;1.25;;;10.90;92.30;;;;;;5095258;28;20227;-65
2022/04/16 09:03:03;;;;;;;1.70;1.30;;;10.90;91.50;;;;;;5095240;28;20228;-65
2022/04/16 09:05:31;;;;;;;1.75;1.40;;;11.00;90.60;;;;;;5095381;28;20572;-65
2022/04/16 09:07:59;;;;;;;1.45;1.20;;;11.10;90.60;;;;;;5095391;28;20215;-66
2022/04/16 09:10:27;;;;;;;1.52;1.42;;;11.20;90.20;;;;;;5094978;28;20707;-63
2022/04/16 09:12:56;;;;;;;2.20;1.30;;;11.30;88.50;;;;;;5095490;28;20231;-64
2022/04/16 09:15:25;;;;;;;1.40;1.20;;;11.30;88.20;;;;;;5095308;28;20586;-64
2022/04/16 09:18:02;;;;;;;1.30;1.20;;;11.30;86.20;;;;;;5095093;28;20223;-64
2022/04/16 09:20:35;;;;;;;3.80;1.70;;;11.40;83.80;;;;;;5094910;28;20236;-64
2022/04/16 09:23:02;;;;;;;2.22;1.25;;;11.40;84.50;;;;;;5095532;28;20227;-63
2022/04/16 09:25:31;;;;;;;1.55;1.38;;;11.50;82.70;;;;;;5094837;28;20231;-64
2022/04/16 09:27:59;;;;;;;2.33;2.13;;;11.60;82.30;;;;;;5095207;28;20227;-64
2022/04/16 09:30:30;;;;;;;2.05;1.38;;;11.60;80.70;;;;;;5095080;28;20288;-64
2022/04/16 09:32:58;;;;;;;2.33;1.45;;;11.60;81.10;;;;;;5094731;28;20219;-64
2022/04/16 09:35:27;;;;;;;2.88;1.30;;;11.60;79.30;;;;;;5094869;28;20224;-63
2022/04/16 09:37:55;;;;;;;1.17;1.08;;;11.70;80.60;;;;;;5094711;28;20549;-64
2022/04/16 09:40:24;;;;;;;1.30;1.20;;;11.70;81.50;;;;;;5094925;28;20219;-64
2022/04/16 09:42:54;;;;;;;1.10;1.00;;;11.70;81.60;;;;;;5094583;28;20231;-64
2022/04/16 09:45:21;;;;;;;1.65;1.17;;;11.80;80.80;;;;;;5095006;28;20243;-64
2022/04/16 09:47:52;;;;;;;1.63;1.50;;;11.90;79.60;;;;;;5094431;28;20227;-64
2022/04/16 09:50:20;;;;;;;1.95;1.73;;;11.90;77.40;;;;;;5094794;28;20246;-65
2022/04/16 09:52:52;;;;;;;2.90;1.45;;;12.00;76.70;;;;;;5094282;28;20237;-64
2022/04/16 09:55:21;;;;;;;1.35;1.20;;;12.10;76.60;;;;;;5094507;28;20238;-65
2022/04/16 09:57:51;;;;;;;2.10;1.70;;;12.20;77.40;;;;;;5094094;28;20743;-65
2022/04/16 10:00:18;;;;;;;1.20;1.10;;;12.30;76.30;;;;;;5094596;28;20242;-65
2022/04/16 10:02:47;;;;;;;1.20;1.10;;;12.30;73.30;;;;;;5094135;28;20288;-65
2022/04/16 10:05:15;;;;;;;1.50;1.40;;;12.30;72.30;;;;;;5094627;28;20235;-65
2022/04/16 10:07:44;;;;;;;2.30;1.45;;;12.30;70.20;;;;;;5094066;28;20223;-65
2022/04/16 10:10:19;;;;;;;2.83;1.33;;;12.30;71.80;;;;;;5094614;28;20227;-65
2022/04/16 10:13:04;;;;;;;2.40;1.50;;;12.20;71.10;;;;;;5093934;28;20288;-65
2022/04/16 10:15:43;;;;;;;1.40;1.30;;;12.20;72.20;;;;;;5093330;28;20228;-65
2022/04/16 10:18:12;;;;;;;1.40;1.30;;;12.30;73.00;;;;;;5094014;28;20211;-65
2022/04/16 10:20:50;;;;;;;1.30;1.20;;;12.30;72.80;;;;;;5094184;28;20215;-65
2022/04/16 10:23:27;;;;;;;1.25;1.08;;;12.40;70.00;;;;;;5093895;28;20234;-65
2022/04/16 10:26:01;;;;;;;1.63;1.00;;;12.40;68.60;;;;;;5093684;28;20237;-65
2022/04/16 10:28:40;;;;;;;1.80;1.30;;;12.50;68.20;;;;;;5093981;28;20231;-66
2022/04/16 10:31:19;;;;;;;1.52;1.00;;;12.60;68.60;;;;;;5093232;28;20227;-65
2022/04/16 10:33:56;;;;;;;1.42;1.30;;;12.60;66.10;;;;;;5093769;28;20276;-65
2022/04/16 10:36:27;;;;;;;2.75;1.20;;;12.60;64.80;;;;;;5093924;28;20218;-65
2022/04/16 10:38:54;;;;;;;1.30;1.15;;;12.70;63.70;;;;;;5094013;28;20218;-65
2022/04/16 10:41:23;;;;;;;1.17;1.08;;;12.60;62.70;;;;;;5093284;28;20661;-64
2022/04/16 10:43:55;;;;;;;2.55;1.20;;;12.70;63.60;;;;;;5093812;28;20219;-64
2022/04/16 10:46:22;;;;;;;1.20;1.10;;;12.80;63.60;;;;;;5093227;28;20215;-65
2022/04/16 10:48:50;;;;;;;1.58;1.17;;;12.90;65.40;;;;;;5093381;28;20245;-64
2022/04/16 10:51:21;;;;;;;0.80;0.68;;;12.90;65.40;;;;;;5093213;28;20719;-64
2022/04/16 10:53:49;;;;;;;1.85;1.17;;;12.90;65.60;;;;;;5093713;28;20236;-64
2022/04/16 10:56:20;;;;;;;1.25;1.15;;;13.00;65.70;;;;;;5093225;28;20302;-64
2022/04/16 10:58:48;;;;;;;1.05;0.95;;;13.00;64.90;;;;;;5093203;28;20219;-64
2022/04/16 11:01:25;;;;;;;1.10;1.00;;;13.10;65.60;;;;;;5092863;28;20550;-64
2022/04/16 11:03:53;;;;;;;1.10;1.00;;;13.10;63.90;;;;;;5093501;28;20731;-64
2022/04/16 11:06:32;;;;;;;2.15;1.08;;;13.10;63.20;;;;;;5092959;28;20222;-64
2022/04/16 11:09:02;;;;;;;1.67;1.33;;;13.10;63.40;;;;;;5093453;28;20222;-64
2022/04/16 11:11:29;;;;;;;1.38;1.20;;;13.20;64.50;;;;;;5093038;28;20234;-65
2022/04/16 11:13:57;;;;;;;1.48;1.10;;;13.30;64.60;;;;;;5093227;28;20223;-65
2022/04/16 11:16:25;;;;;;;1.25;0.90;;;13.30;63.90;;;;;;5092777;28;20309;-65
2022/04/16 11:18:52;;;;;;;1.30;1.00;;;13.40;64.30;;;;;;5093296;28;20241;-65
2022/04/16 11:21:21;;;;;;;1.80;1.20;;;13.50;65.00;;;;;;5092449;28;20227;-64
2022/04/16 11:23:50;;;;;;;3.03;1.38;;;13.50;64.60;;;;;;5093301;28;20300;-64
2022/04/16 11:34:34;;;;;;;1.88;1.23;;;13.40;60.50;;;;;;5092971;28;20688;-64
2022/04/16 11:37:03;;;;;;;1.63;1.50;;;13.40;60.10;;;;;;5092471;28;20241;-64
2022/04/16 11:39:31;;;;;;;1.30;1.08;;;13.50;60.10;;;;;;5092963;28;20246;-64
2022/04/16 11:42:02;;;;;;;1.13;1.02;;;13.60;60.20;;;;;;5092613;28;20234;-64
2022/04/16 11:44:31;;;;;;;1.67;1.07;;;13.70;61.50;;;;;;5092824;28;20214;-64
2022/04/16 11:46:59;;;;;;;1.40;1.30;;;13.70;63.90;;;;;;5092290;28;20466;-64
2022/04/16 11:49:26;;;;;;;1.10;1.00;;;13.80;64.70;;;;;;5092905;28;20215;-64
2022/04/16 11:51:53;;;;;;;1.48;1.38;;;13.80;64.70;;;;;;5092220;28;20789;-65
2022/04/16 11:54:28;;;;;;;3.05;1.55;;;13.90;64.30;;;;;;5092729;28;20223;-65
2022/04/16 11:56:55;;;;;;;2.38;1.30;;;13.90;64.20;;;;;;5092318;28;20214;-65
2022/04/16 11:59:25;;;;;;;1.53;1.07;;;13.90;64.40;;;;;;5092577;28;20223;-65
2022/04/16 12:01:59;;;;;;;1.10;0.80;;;14.00;64.10;;;;;;5092032;28;20469;-65
2022/04/16 12:04:43;;;;;;;1.37;0.90;;;14.00;62.20;;;;;;5092736;28;20484;-65
2022/04/16 12:07:11;;;;;;;2.07;1.03;;;14.10;60.60;;;;;;5092285;28;20471;-65
2022/04/16 12:09:38;;;;;;;1.27;1.03;;;14.10;59.60;;;;;;5092551;28;20838;-65
2022/04/16 12:12:06;;;;;;;2.23;1.17;;;14.10;59.70;;;;;;5092131;28;20461;-65
2022/04/16 12:14:34;;;;;;;1.30;1.20;;;14.10;59.30;;;;;;5092287;28;20549;-65
2022/04/16 12:17:02;;;;;;;2.20;1.00;;;14.20;59.50;;;;;;5092163;28;20970;-65
2022/04/16 12:19:31;;;;;;;2.43;0.83;;;14.20;58.60;;;;;;5092562;28;20457;-65
2022/04/16 12:21:59;;;;;;;1.17;0.87;;;14.20;58.50;;;;;;5092098;28;20524;-65
2022/04/16 12:24:27;;;;;;;1.30;1.13;;;14.20;58.10;;;;;;5092680;28;20526;-65
2022/04/16 12:26:53;;;;;;;1.17;1.07;;;14.20;57.60;;;;;;5092118;28;20469;-65
2022/04/16 12:29:27;;;;;;;4.10;1.30;;;14.30;57.90;;;;;;5092325;28;20457;-65
2022/04/16 12:31:59;;;;;;;1.60;1.50;;;14.20;57.30;;;;;;5091849;28;20476;-65
2022/04/16 12:34:27;;;;;;;2.10;1.30;;;14.30;56.60;;;;;;5092286;28;20504;-65
2022/04/16 12:36:54;;;;;;;1.57;1.30;;;14.30;56.50;;;;;;5091889;28;20472;-65
2022/04/16 12:39:23;;;;;;;1.30;1.20;;;14.30;56.10;;;;;;5095096;28;20469;-65
2022/04/16 12:41:50;;;;;;;1.30;1.20;;;14.40;54.80;;;;;;5096015;28;20553;-64
2022/04/16 12:44:17;;;;;;;0.77;0.70;;;14.40;55.20;;;;;;5095910;28;20904;-64
2022/04/16 12:46:44;;;;;;;2.70;1.43;;;14.40;55.10;;;;;;5096102;28;20461;-64
2022/04/16 12:49:17;;;;;;;1.00;0.90;;;14.50;54.40;;;;;;5095343;28;20465;-65
2022/04/16 12:51:48;;;;;;;1.20;0.87;;;14.40;53.60;;;;;;5095787;28;20469;-64
2022/04/16 12:54:14;;;;;;;1.60;1.40;;;14.50;53.80;;;;;;5095621;28;20472;-64
2022/04/16 12:56:42;;;;;;;1.97;1.20;;;14.50;53.60;;;;;;5095822;28;20462;-64
2022/04/16 12:59:09;;;;;;;1.40;1.17;;;14.50;53.00;;;;;;5095127;28;20457;-64
2022/04/16 13:01:36;;;;;;;1.40;0.90;;;14.50;52.20;;;;;;5095866;28;20465;-64
2022/04/16 13:04:04;;;;;;;1.37;1.10;;;14.50;52.30;;;;;;5095181;28;20982;-64
2022/04/16 13:06:32;;;;;;;3.20;1.10;;;14.50;52.00;;;;;;5095629;28;20472;-64
2022/04/16 13:09:02;;;;;;;2.50;1.53;;;14.50;51.80;;;;;;5095165;28;20484;-64
2022/04/16 13:11:29;;;;;;;2.00;1.20;;;14.50;51.90;;;;;;5095551;28;20465;-65
2022/04/16 13:13:56;;;;;;;1.13;0.90;;;14.50;50.70;;;;;;5095143;28;20458;-64
2022/04/16 13:16:23;;;;;;;1.03;0.80;;;14.40;51.60;;;;;;5095379;28;20485;-64
2022/04/16 13:18:50;;;;;;;1.17;0.97;;;14.40;51.10;;;;;;5095529;28;20468;-64
2022/04/16 13:21:16;;;;;;;0.93;0.90;;;14.50;50.80;;;;;;5094885;28;20790;-64